Time;durP1;ratioP1;P1;durP2;ratioP2;P2;SDS_P1;SDS_P2;PMS_P1;PMS_P2;Temp;Humidity;BMP_temperature;BMP_pressure;BME280_temperature;BME280_humidity;BME280_pressure;Samples;Min_cycle;Max_cycle;Signal;HPM_P1;HPM_P2
2021/04/03 00:02:46;;;;;;;71.87;33.53;;;;;;;2.69;62.97;98539.50;2217124;80;21098;-78
2021/04/03 00:05:48;;;;;;;78.37;35.50;;;;;;;2.68;62.98;98545.06;2217152;80;21431;-78
2021/04/03 00:08:50;;;;;;;75.77;34.90;;;;;;;2.70;62.83;98545.13;2217264;80;21276;-77
2021/04/03 00:11:53;;;;;;;76.23;34.47;;;;;;;2.68;62.90;98539.91;2217137;80;21138;-77
2021/04/03 00:14:54;;;;;;;112.93;57.07;;;;;;;2.68;68.89;98534.76;2217257;80;21185;-77
2021/04/03 00:17:55;;;;;;;115.60;58.93;;;;;;;6.01;77.83;98517.70;2217169;80;21272;-78
2021/04/03 00:20:56;;;;;;;92.47;44.20;;;;;;;7.70;61.82;98514.00;2217240;80;21134;-77
2021/04/03 00:23:57;;;;;;;87.93;39.73;;;;;;;6.58;58.23;98513.45;2217210;80;21240;-78
2021/04/03 00:27:01;;;;;;;89.33;40.40;;;;;;;5.60;57.89;98521.39;2217233;80;21272;-78
2021/04/03 00:30:14;;;;;;;74.20;36.33;;;;;;;4.84;58.41;98527.01;2217292;80;21523;-78
2021/04/03 00:33:06;;;;;;;73.23;35.33;;;;;;;4.22;59.13;98528.94;2214976;80;21298;-78
2021/04/03 00:36:07;;;;;;;79.30;35.13;;;;;;;3.82;59.77;98532.82;2217369;80;21291;-78
2021/04/03 00:39:08;;;;;;;71.40;35.67;;;;;;;3.54;60.37;98527.14;2217326;80;21535;-77
2021/04/03 00:42:09;;;;;;;86.30;39.03;;;;;;;3.33;60.88;98531.53;2217175;80;21133;-77
2021/04/03 00:45:10;;;;;;;77.43;38.10;;;;;;;3.20;61.33;98528.92;2217429;80;21150;-77
2021/04/03 00:48:14;;;;;;;72.80;33.83;;;;;;;3.13;61.72;98526.95;2217430;80;21181;-78
2021/04/03 00:51:15;;;;;;;71.23;32.77;;;;;;;3.04;61.82;98527.50;2217423;80;21260;-78
2021/04/03 00:54:16;;;;;;;55.57;31.63;;;;;;;2.95;62.26;98520.72;2217295;80;21153;-79
2021/04/03 00:57:17;;;;;;;63.50;32.80;;;;;;;2.94;62.27;98525.41;2217352;80;21257;-78
2021/04/03 01:00:18;;;;;;;71.77;33.30;;;;;;;2.91;62.45;98521.84;2217359;80;21249;-78
2021/04/03 01:03:19;;;;;;;84.53;33.40;;;;;;;2.88;62.53;98523.90;2217557;80;21395;-78
2021/04/03 01:06:20;;;;;;;96.90;57.63;;;;;;;2.85;62.60;98516.93;2217213;80;21253;-77
2021/04/03 01:09:21;;;;;;;118.97;70.70;;;;;;;3.80;79.18;98509.53;2217281;80;21244;-78
2021/04/03 01:12:22;;;;;;;76.10;44.07;;;;;;;7.29;76.65;98500.70;2217190;80;21133;-78
2021/04/03 01:15:23;;;;;;;65.17;33.50;;;;;;;7.39;60.05;98493.09;2217635;80;21177;-78
2021/04/03 01:18:24;;;;;;;62.53;32.20;;;;;;;6.24;58.08;98493.25;2217127;80;21126;-79
2021/04/03 01:21:25;;;;;;;57.03;30.23;;;;;;;5.35;58.24;98499.58;2217132;80;21252;-77
2021/04/03 01:24:26;;;;;;;401.90;157.80;;;;;;;4.74;58.84;98497.42;2217341;80;21133;-78
2021/04/03 01:27:27;;;;;;;454.53;174.37;;;;;;;4.35;59.50;98502.28;2217309;80;21142;-78
2021/04/03 01:30:30;;;;;;;289.00;123.17;;;;;;;4.11;60.04;98501.06;2217073;80;21372;-78
2021/04/03 01:33:31;;;;;;;162.83;71.47;;;;;;;3.94;60.52;98506.52;2216831;80;21315;-79
2021/04/03 01:36:33;;;;;;;111.77;48.87;;;;;;;3.79;60.94;98502.61;2216738;80;21538;-78
2021/04/03 01:39:35;;;;;;;152.63;44.10;;;;;;;3.70;61.37;98507.47;2217186;80;21526;-78
2021/04/03 01:42:36;;;;;;;68.03;34.77;;;;;;;3.70;61.72;98503.60;2216581;80;21264;-79
2021/04/03 01:45:37;;;;;;;59.97;31.13;;;;;;;3.67;61.67;98490.59;2217424;80;21110;-78
2021/04/03 01:48:40;;;;;;;63.30;30.83;;;;;;;3.68;61.85;98488.89;2217004;80;21570;-78
2021/04/03 01:51:41;;;;;;;56.83;29.63;;;;;;;3.66;62.19;98484.09;2216781;80;21299;-77
2021/04/03 01:54:42;;;;;;;57.57;28.33;;;;;;;3.64;62.60;98483.16;2217170;80;21548;-78
2021/04/03 01:57:43;;;;;;;52.97;28.17;;;;;;;3.61;62.94;98486.94;2217364;80;21264;-78
2021/04/03 02:00:44;;;;;;;60.20;28.07;;;;;;;3.62;63.19;98488.69;2217574;80;21576;-78
2021/04/03 02:03:46;;;;;;;94.63;41.73;;;;;;;3.62;63.46;98489.56;2217606;80;21110;-77
2021/04/03 02:06:47;;;;;;;221.40;94.27;;;;;;;3.67;63.50;98485.84;2217732;80;21129;-78
2021/04/03 02:09:48;;;;;;;141.13;64.07;;;;;;;3.70;63.38;98480.37;2217312;80;21145;-77
2021/04/03 02:12:49;;;;;;;267.73;122.97;;;;;;;3.67;63.20;98479.39;2217493;80;21146;-78
2021/04/03 02:15:50;;;;;;;132.93;63.03;;;;;;;3.68;63.39;98480.73;2217439;80;21506;-78
2021/04/03 02:18:51;;;;;;;69.90;32.70;;;;;;;3.72;63.56;98478.72;2210738;80;21288;-77
2021/04/03 02:21:52;;;;;;;56.07;29.77;;;;;;;3.80;63.47;98478.55;2210084;80;21535;-78
2021/04/03 02:24:53;;;;;;;139.83;89.63;;;;;;;3.92;63.39;98479.36;2210642;81;21158;-78
2021/04/03 02:27:54;;;;;;;92.13;53.77;;;;;;;6.53;78.27;98480.06;2210368;80;21142;-78
2021/04/03 02:30:55;;;;;;;57.93;34.43;;;;;;;8.87;63.10;98471.26;2210144;80;21142;-78
2021/04/03 02:33:56;;;;;;;50.87;31.17;;;;;;;7.88;57.09;98489.67;2210248;81;21138;-78
2021/04/03 02:36:57;;;;;;;50.87;31.67;;;;;;;6.81;57.03;98488.89;2210271;80;21579;-78
2021/04/03 02:39:58;;;;;;;52.93;31.23;;;;;;;6.11;57.23;98490.34;2210201;80;21245;-78
2021/04/03 02:42:59;;;;;;;52.77;31.87;;;;;;;5.65;57.83;98484.84;2209731;80;21138;-77
2021/04/03 02:46:00;;;;;;;51.80;33.03;;;;;;;5.31;58.34;98481.80;2209660;80;21245;-78
2021/04/03 02:49:01;;;;;;;49.73;30.33;;;;;;;4.93;58.90;98485.89;2209282;80;21173;-78
2021/04/03 02:52:02;;;;;;;51.53;32.23;;;;;;;4.57;59.31;98481.83;2209182;80;21248;-78
2021/04/03 02:55:04;;;;;;;61.47;35.47;;;;;;;4.33;59.83;98481.06;2210126;80;21173;-78
2021/04/03 02:58:05;;;;;;;58.27;34.07;;;;;;;4.18;60.33;98481.47;2210032;80;21110;-78
2021/04/03 03:01:06;;;;;;;54.50;34.00;;;;;;;4.05;60.88;98480.21;2210267;80;21431;-78
2021/04/03 03:04:07;;;;;;;54.87;32.97;;;;;;;3.95;61.17;98476.00;2209947;80;21268;-78
2021/04/03 03:07:08;;;;;;;53.10;33.33;;;;;;;3.80;61.51;98480.25;2210255;80;21276;-78
2021/04/03 03:10:09;;;;;;;62.57;34.30;;;;;;;3.68;61.60;98473.41;2210237;80;21110;-78
2021/04/03 03:13:10;;;;;;;59.20;33.17;;;;;;;3.55;61.69;98472.12;2210405;80;21169;-78
2021/04/03 03:16:11;;;;;;;55.07;31.87;;;;;;;3.39;61.61;98471.98;2210144;80;21133;-78
2021/04/03 03:19:12;;;;;;;56.67;33.07;;;;;;;3.19;62.15;98469.14;2210377;80;21162;-78
2021/04/03 03:22:13;;;;;;;58.83;32.60;;;;;;;3.08;62.46;98463.61;2210254;81;21150;-78
2021/04/03 03:25:14;;;;;;;56.53;30.60;;;;;;;3.02;62.58;98459.94;2210671;80;21138;-78
2021/04/03 03:28:15;;;;;;;52.80;31.00;;;;;;;2.93;62.70;98464.77;2210422;80;21153;-79
2021/04/03 03:31:16;;;;;;;54.80;32.27;;;;;;;2.88;63.22;98468.06;2210044;80;21260;-79
2021/04/03 03:34:17;;;;;;;55.40;31.93;;;;;;;2.82;63.70;98470.83;2210099;80;21554;-78
2021/04/03 03:37:18;;;;;;;51.30;32.13;;;;;;;2.74;63.64;98464.11;2210205;80;21170;-78
2021/04/03 03:40:19;;;;;;;54.97;32.63;;;;;;;2.74;63.76;98468.39;2210103;80;21134;-77
2021/04/03 03:43:21;;;;;;;67.23;34.70;;;;;;;2.74;63.97;98466.69;2209955;80;21260;-78
2021/04/03 03:46:22;;;;;;;60.47;35.40;;;;;;;2.74;64.17;98464.52;2210077;80;21134;-78
2021/04/03 03:49:23;;;;;;;63.80;33.83;;;;;;;2.74;64.83;98465.81;2210020;80;21153;-77
2021/04/03 03:52:24;;;;;;;62.00;35.70;;;;;;;2.71;64.96;98469.56;2209904;80;21126;-78
2021/04/03 03:55:25;;;;;;;67.67;37.03;;;;;;;2.69;65.20;98466.05;2209770;80;21174;-77
2021/04/03 03:58:26;;;;;;;57.87;33.13;;;;;;;2.72;65.31;98472.20;2209702;80;21119;-77
2021/04/03 04:01:27;;;;;;;65.60;35.30;;;;;;;2.72;65.62;98470.03;2209799;80;21249;-77
2021/04/03 04:04:28;;;;;;;67.27;36.73;;;;;;;2.72;65.72;98471.31;2210159;80;21138;-77
2021/04/03 04:07:35;;;;;;;61.93;35.77;;;;;;;2.74;65.63;98469.67;2209997;80;21249;-77
2021/04/03 04:10:33;;;;;;;53.43;33.90;;;;;;;2.75;65.85;98471.43;2209568;80;21149;-77
2021/04/03 04:13:36;;;;;;;60.17;35.23;;;;;;;2.77;66.01;98473.66;2208926;80;21150;-78
2021/04/03 04:16:37;;;;;;;63.20;35.83;;;;;;;2.79;65.94;98479.33;2208826;80;21256;-78
2021/04/03 04:19:39;;;;;;;65.30;37.63;;;;;;;2.84;66.26;98480.78;2216133;80;21360;-77
2021/04/03 04:22:40;;;;;;;65.47;38.30;;;;;;;2.87;66.23;98473.16;2215912;80;21244;-78
2021/04/03 04:25:41;;;;;;;64.77;37.53;;;;;;;2.95;66.37;98473.02;2215928;80;21264;-78
2021/04/03 04:28:43;;;;;;;66.30;37.40;;;;;;;3.00;66.30;98482.21;2216469;80;21240;-78
2021/04/03 04:31:44;;;;;;;69.20;36.97;;;;;;;3.03;66.17;98478.45;2216563;80;21281;-78
2021/04/03 04:34:47;;;;;;;70.40;38.00;;;;;;;3.12;66.36;98477.48;2217406;80;21574;-77
2021/04/03 04:37:48;;;;;;;68.30;37.40;;;;;;;3.16;66.24;98478.06;2217383;80;21318;-78
2021/04/03 04:40:49;;;;;;;65.70;37.53;;;;;;;3.20;66.16;98476.93;2217388;80;21102;-78
2021/04/03 04:43:50;;;;;;;73.23;39.50;;;;;;;3.26;66.28;98485.30;2217342;80;21257;-79
2021/04/03 04:46:51;;;;;;;66.63;38.90;;;;;;;3.28;66.23;98483.64;2217270;80;21106;-78
2021/04/03 04:49:52;;;;;;;68.17;37.00;;;;;;;3.29;66.27;98491.84;2217640;80;21146;-79
2021/04/03 04:52:53;;;;;;;66.97;39.23;;;;;;;3.32;66.32;98491.08;2217362;80;21123;-79
2021/04/03 04:55:54;;;;;;;67.63;39.47;;;;;;;3.34;66.55;98491.59;2217288;80;21558;-78
2021/04/03 04:58:55;;;;;;;71.30;42.57;;;;;;;3.38;66.64;98497.73;2217782;80;21455;-80
2021/04/03 05:01:56;;;;;;;73.10;43.10;;;;;;;3.40;66.59;98491.80;2218704;80;21257;-80
2021/04/03 05:04:57;;;;;;;70.73;42.43;;;;;;;3.44;66.56;98496.66;2219332;80;21126;-79
2021/04/03 05:07:58;;;;;;;77.00;43.47;;;;;;;3.51;66.73;98502.11;2219543;80;21117;-80
2021/04/03 05:10:59;;;;;;;75.63;42.53;;;;;;;3.56;66.76;98502.67;2218757;80;21153;-79
2021/04/03 05:14:00;;;;;;;67.93;39.93;;;;;;;3.56;66.94;98510.00;2218444;80;21455;-80
2021/04/03 05:17:02;;;;;;;71.07;39.27;;;;;;;3.58;67.20;98506.19;2217527;80;21252;-80
2021/04/03 05:20:03;;;;;;;70.33;38.83;;;;;;;3.59;67.55;98508.82;2211479;80;21280;-80
2021/04/03 05:23:04;;;;;;;60.87;34.37;;;;;;;3.61;67.83;98508.45;2211310;80;21411;-81
2021/04/03 05:26:05;;;;;;;61.87;38.37;;;;;;;3.64;68.50;98518.88;2211043;80;21275;-80
2021/04/03 05:29:06;;;;;;;72.70;39.80;;;;;;;3.64;68.47;98512.44;2210863;80;21142;-80
2021/04/03 05:32:07;;;;;;;56.87;32.17;;;;;;;3.71;68.88;98516.09;2211005;80;21153;-80
2021/04/03 05:35:08;;;;;;;58.27;35.63;;;;;;;3.77;69.28;98517.59;2211189;81;21138;-80
2021/04/03 05:38:10;;;;;;;62.73;36.70;;;;;;;3.77;69.16;98521.46;2210736;80;21420;-79
2021/04/03 05:41:11;;;;;;;65.43;38.33;;;;;;;3.80;69.70;98528.89;2210667;81;21559;-80
2021/04/03 05:44:12;;;;;;;60.10;33.83;;;;;;;3.79;69.55;98529.72;2210456;80;21253;-78
2021/04/03 05:47:13;;;;;;;60.97;36.97;;;;;;;3.81;70.44;98529.36;2211283;80;21380;-80
2021/04/03 05:50:14;;;;;;;60.30;35.07;;;;;;;3.76;70.01;98530.91;2211083;80;21439;-81
2021/04/03 05:53:17;;;;;;;56.67;33.70;;;;;;;3.72;70.62;98528.17;2211299;80;21170;-80
2021/04/03 05:56:19;;;;;;;56.97;33.57;;;;;;;3.71;71.57;98539.33;2211011;80;21145;-80
2021/04/03 05:59:20;;;;;;;65.17;36.00;;;;;;;3.67;71.50;98532.31;2210804;81;21141;-80
2021/04/03 06:02:21;;;;;;;66.50;37.03;;;;;;;3.62;71.46;98542.89;2210966;80;21157;-80
2021/04/03 06:05:22;;;;;;;63.77;35.87;;;;;;;3.58;72.13;98542.31;2210694;80;21114;-80
2021/04/03 06:08:23;;;;;;;54.57;32.83;;;;;;;3.55;72.98;98548.66;2210146;80;21150;-80
2021/04/03 06:11:24;;;;;;;51.83;33.33;;;;;;;3.53;73.24;98551.19;2210736;80;21558;-79
2021/04/03 06:14:25;;;;;;;53.83;32.13;;;;;;;3.52;73.40;98550.73;2211186;80;21157;-80
2021/04/03 06:17:26;;;;;;;53.43;32.03;;;;;;;3.46;73.80;98558.22;2211767;80;21209;-79
2021/04/03 06:20:27;;;;;;;46.63;29.77;;;;;;;3.43;73.48;98564.16;2221335;80;21109;-80
2021/04/03 06:23:30;;;;;;;45.67;28.13;;;;;;;3.44;74.56;98565.03;2221175;80;21264;-79
2021/04/03 06:26:31;;;;;;;37.37;26.53;;;;;;;3.44;75.31;98568.48;2221248;80;21267;-80
2021/04/03 06:29:33;;;;;;;37.20;25.27;;;;;;;3.43;74.56;98564.56;2221045;80;21251;-79
2021/04/03 06:32:35;;;;;;;29.07;19.73;;;;;;;3.47;74.59;98572.50;2221346;80;21166;-80
2021/04/03 06:35:36;;;;;;;29.60;18.20;;;;;;;3.51;75.77;98573.48;2221482;80;21300;-79
2021/04/03 06:38:37;;;;;;;27.63;18.30;;;;;;;3.45;75.68;98571.95;2221231;80;21562;-79
2021/04/03 06:41:38;;;;;;;23.73;16.67;;;;;;;3.49;75.30;98577.72;2221311;80;21252;-79
2021/04/03 06:44:40;;;;;;;19.20;15.57;;;;;;;3.59;75.41;98573.34;2221623;80;21251;-78
2021/04/03 06:47:41;;;;;;;16.43;14.07;;;;;;;3.66;75.44;98580.47;2221360;80;21161;-78
2021/04/03 06:50:42;;;;;;;16.57;14.50;;;;;;;3.75;75.22;98574.75;2222342;80;21157;-78
2021/04/03 06:53:43;;;;;;;15.90;13.90;;;;;;;3.83;74.67;98585.80;2221438;80;21283;-78
2021/04/03 06:56:44;;;;;;;14.70;13.20;;;;;;;3.87;75.31;98584.20;2222079;80;21113;-79
2021/04/03 06:59:45;;;;;;;19.07;14.30;;;;;;;3.83;74.88;98583.22;2222185;80;21395;-81
2021/04/03 07:02:46;;;;;;;16.03;12.63;;;;;;;3.86;75.09;98585.44;2221581;80;21145;-79
2021/04/03 07:05:47;;;;;;;16.23;14.00;;;;;;;;;;2221745;80;21109;-79
2021/04/03 07:08:48;;;;;;;15.30;13.60;;;;;;;3.83;75.31;98584.92;2221669;80;21125;-80
2021/04/03 07:11:50;;;;;;;15.30;13.80;;;;;;;3.79;76.15;98591.69;2222601;80;21149;-80
2021/04/03 07:14:51;;;;;;;17.73;15.07;;;;;;;3.78;75.41;98594.22;2222723;80;21439;-78
2021/04/03 07:17:52;;;;;;;15.87;13.60;;;;;;;3.82;75.05;98587.03;2222871;80;21185;-79
2021/04/03 07:20:56;;;;;;;15.83;13.40;;;;;;;3.87;75.29;98594.94;2223149;80;21224;-79
2021/04/03 07:23:57;;;;;;;18.80;14.70;;;;;;;3.89;74.99;98595.88;2222867;80;21121;-80
2021/04/03 07:26:58;;;;;;;15.50;13.07;;;;;;;3.93;75.54;98599.02;2223069;80;21137;-80
2021/04/03 07:29:59;;;;;;;17.70;14.13;;;;;;;3.98;75.27;98605.22;2223071;80;21133;-81
2021/04/03 07:33:00;;;;;;;17.83;15.07;;;;;;;4.02;74.92;98605.79;2222853;80;21125;-79
2021/04/03 07:36:01;;;;;;;17.07;13.80;;;;;;;3.98;75.41;98607.80;2222929;80;21137;-79
2021/04/03 07:39:03;;;;;;;14.33;12.53;;;;;;;4.02;74.77;98622.16;2221895;80;21129;-80
2021/04/03 07:42:04;;;;;;;15.83;13.87;;;;;;;4.09;74.68;98624.13;2221665;80;21141;-80
2021/04/03 07:45:05;;;;;;;15.80;13.23;;;;;;;4.10;74.82;98622.42;2221718;80;21471;-80
2021/04/03 07:48:11;;;;;;;16.00;13.93;;;;;;;4.18;74.76;98633.89;2222026;80;21159;-80
2021/04/03 07:51:09;;;;;;;17.70;14.73;;;;;;;4.16;74.41;98631.25;2220976;80;21142;-80
2021/04/03 07:54:10;;;;;;;18.10;14.47;;;;;;;4.17;74.78;98628.25;2221665;80;21455;-80
2021/04/03 07:57:11;;;;;;;17.33;13.63;;;;;;;4.17;74.66;98634.72;2221763;80;21153;-80
2021/04/03 08:00:12;;;;;;;17.43;14.03;;;;;;;4.12;75.05;98639.73;2221837;80;21137;-79
2021/04/03 08:03:13;;;;;;;19.23;14.50;;;;;;;4.06;74.94;98649.85;2222157;80;21141;-80
2021/04/03 08:06:14;;;;;;;19.20;14.23;;;;;;;3.94;75.42;98642.09;2221939;80;21153;-79
2021/04/03 08:09:15;;;;;;;16.30;14.53;;;;;;;3.91;75.71;98652.32;2222101;80;21134;-81
2021/04/03 08:12:16;;;;;;;20.10;16.40;;;;;;;3.84;75.78;98646.94;2221578;80;21129;-80
2021/04/03 08:15:20;;;;;;;20.60;16.90;;;;;;;3.80;75.67;98642.50;2221531;80;21435;-78
2021/04/03 08:18:21;;;;;;;22.23;15.87;;;;;;;3.76;76.34;98654.83;2220260;80;21157;-80
2021/04/03 08:21:22;;;;;;;22.03;16.97;;;;;;;3.71;76.59;98649.92;2217914;80;21145;-80
2021/04/03 08:24:23;;;;;;;24.90;17.13;;;;;;;3.66;76.75;98657.03;2218265;80;21272;-80
2021/04/03 08:27:25;;;;;;;24.17;17.23;;;;;;;3.62;76.99;98657.74;2217694;80;21253;-79
2021/04/03 08:30:26;;;;;;;25.80;17.93;;;;;;;3.57;77.35;98667.91;2217997;80;21137;-78
2021/04/03 08:33:27;;;;;;;21.53;17.97;;;;;;;3.55;77.07;98666.09;2217999;80;21304;-79
2021/04/03 08:36:28;;;;;;;25.97;19.97;;;;;;;3.54;77.32;98670.38;2217917;80;21098;-79
2021/04/03 08:39:29;;;;;;;25.33;19.27;;;;;;;3.51;77.79;98670.27;2218213;80;21249;-81
2021/04/03 08:42:30;;;;;;;24.30;19.30;;;;;;;3.47;78.68;98673.55;2218046;80;21098;-81
2021/04/03 08:45:31;;;;;;;26.43;19.50;;;;;;;3.48;78.40;98680.47;2218196;80;21175;-79
2021/04/03 08:48:33;;;;;;;25.03;19.57;;;;;;;3.50;78.30;98674.55;2218091;80;21420;-79
2021/04/03 08:51:34;;;;;;;28.17;20.17;;;;;;;3.59;78.04;98681.74;2217838;80;21114;-80
2021/04/03 08:54:35;;;;;;;22.37;17.67;;;;;;;3.64;78.04;98678.92;2217653;80;21284;-79
2021/04/03 08:57:36;;;;;;;22.73;18.50;;;;;;;3.69;77.88;98677.80;2217550;80;21235;-80
2021/04/03 09:00:37;;;;;;;25.03;20.40;;;;;;;3.76;77.70;98687.52;2217281;80;21280;-80
2021/04/03 09:03:38;;;;;;;18.93;15.67;;;;;;;3.83;77.46;98689.08;2217984;80;21122;-80
2021/04/03 09:06:39;;;;;;;12.97;11.57;;;;;;;3.86;77.06;98693.89;2218049;80;21146;-79
2021/04/03 09:09:41;;;;;;;13.57;12.03;;;;;;;3.86;76.75;98699.05;2218222;80;21141;-79
2021/04/03 09:12:42;;;;;;;13.73;11.67;;;;;;;3.78;76.44;98702.23;2218266;80;21280;-80
2021/04/03 09:15:46;;;;;;;13.80;11.77;;;;;;;3.76;77.01;98709.05;2217815;80;21659;-80
2021/04/03 09:18:47;;;;;;;13.50;11.80;;;;;;;3.66;76.60;98717.28;2216249;80;21417;-79
2021/04/03 09:21:48;;;;;;;13.50;11.63;;;;;;;3.60;77.15;98723.51;2211292;80;21126;-80
2021/04/03 09:24:49;;;;;;;14.43;11.30;;;;;;;3.56;76.97;98720.75;2210787;80;21130;-80
2021/04/03 09:27:50;;;;;;;13.90;11.67;;;;;;;3.52;76.99;98728.80;2210636;81;21139;-80
2021/04/03 09:30:51;;;;;;;13.60;11.57;;;;;;;3.48;77.01;98730.80;2210918;80;21257;-79
2021/04/03 09:33:52;;;;;;;11.63;9.43;;;;;;;3.44;77.23;98739.20;2211124;80;21154;-80
2021/04/03 09:36:53;;;;;;;7.80;7.00;;;;;;;3.39;77.27;98739.44;2211038;81;21165;-80
2021/04/03 09:39:54;;;;;;;8.47;6.13;;;;;;;3.36;76.69;98749.64;2211027;81;21119;-79
2021/04/03 09:42:55;;;;;;;9.40;7.03;;;;;;;3.33;76.40;98747.83;2210528;81;21150;-79
2021/04/03 09:45:56;;;;;;;8.03;6.50;;;;;;;3.32;76.73;98754.22;2211074;81;21130;-79
2021/04/03 09:48:57;;;;;;;5.87;5.37;;;;;;;3.31;76.67;98761.48;2211149;81;21450;-81
2021/04/03 09:51:59;;;;;;;7.43;6.53;;;;;;;3.24;76.65;98764.23;2211483;81;21154;-80
2021/04/03 09:55:00;;;;;;;6.60;5.90;;;;;;;3.14;76.79;98768.56;2211208;81;21171;-81
2021/04/03 09:58:01;;;;;;;10.33;7.03;;;;;;;3.11;76.99;98768.44;2210905;81;21257;-79
2021/04/03 10:01:02;;;;;;;8.53;7.47;;;;;;;3.10;77.60;98781.75;2210963;81;21133;-80
2021/04/03 10:04:03;;;;;;;9.17;7.37;;;;;;;3.15;77.66;98778.94;2211333;81;21134;-80
2021/04/03 10:07:04;;;;;;;8.20;6.70;;;;;;;3.17;77.34;98781.17;2210752;81;21134;-79
2021/04/03 10:10:05;;;;;;;8.80;7.20;;;;;;;3.25;77.09;98787.05;2211782;81;21515;-79
2021/04/03 10:13:07;;;;;;;6.27;5.67;;;;;;;3.29;77.34;98794.97;2211684;81;21372;-79
2021/04/03 10:16:08;;;;;;;7.57;5.77;;;;;;;3.26;77.35;98805.16;2211136;81;21138;-79
2021/04/03 10:19:11;;;;;;;11.90;8.10;;;;;;;3.28;77.73;98811.27;2211137;81;21154;-79
2021/04/03 10:22:13;;;;;;;18.30;11.23;;;;;;;3.27;78.13;98801.77;2211269;81;21169;-79
2021/04/03 10:25:14;;;;;;;9.97;7.67;;;;;;;3.30;77.64;98806.16;2211487;80;21451;-81
2021/04/03 10:28:15;;;;;;;6.60;5.93;;;;;;;3.41;77.18;98812.22;2211920;81;21138;-80
2021/04/03 10:31:17;;;;;;;7.57;6.70;;;;;;;3.62;76.93;98805.75;2212302;81;21145;-80
2021/04/03 10:34:18;;;;;;;6.03;5.50;;;;;;;3.81;76.76;98814.66;2211330;81;21161;-79
2021/04/03 10:37:19;;;;;;;7.27;5.90;;;;;;;3.94;76.49;98809.95;2210512;81;21098;-80
2021/04/03 10:40:20;;;;;;;8.90;7.63;;;;;;;4.13;76.90;98817.56;2212051;81;21126;-80
2021/04/03 10:43:21;;;;;;;9.73;8.83;;;;;;;4.14;76.00;98833.11;2212093;81;21130;-80
2021/04/03 10:46:22;;;;;;;12.27;9.30;;;;;;;4.02;76.35;98818.87;2211460;81;21122;-80
2021/04/03 10:49:23;;;;;;;11.07;9.30;;;;;;;4.10;76.33;98827.37;2211412;81;21276;-79
2021/04/03 10:52:24;;;;;;;14.83;10.47;;;;;;;4.07;76.31;98815.63;2211902;81;21205;-80
2021/04/03 10:55:25;;;;;;;13.33;10.27;;;;;;;4.00;76.22;98827.85;2211926;80;21130;-81
2021/04/03 10:58:26;;;;;;;13.07;9.93;;;;;;;3.95;75.35;98839.71;2212035;80;21416;-81
2021/04/03 11:01:27;;;;;;;12.93;11.33;;;;;;;4.05;75.39;98829.31;2212216;81;21145;-80
2021/04/03 11:04:28;;;;;;;13.87;12.37;;;;;;;4.25;75.16;98831.34;2212070;80;21139;-79
2021/04/03 11:07:29;;;;;;;14.37;11.93;;;;;;;4.37;75.48;98824.94;2212167;80;21249;-80
2021/04/03 11:10:32;;;;;;;18.00;14.57;;;;;;;4.56;73.87;98829.05;2211751;81;21153;-79
2021/04/03 11:13:33;;;;;;;17.70;13.80;;;;;;;4.80;75.09;98827.73;2211850;80;21142;-80
2021/04/03 11:16:34;;;;;;;16.20;13.53;;;;;;;4.98;72.60;98833.52;2211805;80;21158;-80
2021/04/03 11:19:35;;;;;;;15.53;13.30;;;;;;;5.12;72.90;98824.92;2214497;80;21444;-80
2021/04/03 11:22:37;;;;;;;15.00;12.10;;;;;;;5.26;71.21;98830.16;2219211;80;21129;-79
2021/04/03 11:25:38;;;;;;;14.43;12.80;;;;;;;5.33;71.30;98832.12;2218123;80;21545;-78
2021/04/03 11:28:39;;;;;;;14.60;12.97;;;;;;;5.50;71.56;98826.19;2217912;80;21130;-80
2021/04/03 11:31:40;;;;;;;16.30;13.13;;;;;;;5.76;71.08;98820.52;2218354;80;21146;-79
2021/04/03 11:34:41;;;;;;;17.43;13.40;;;;;;;5.96;68.90;98817.25;2218279;80;21498;-79
2021/04/03 11:37:42;;;;;;;14.13;11.73;;;;;;;6.13;69.23;98821.25;2218657;80;21249;-80
2021/04/03 11:40:43;;;;;;;13.93;11.40;;;;;;;6.39;69.02;98817.67;2218104;80;21284;-79
2021/04/03 11:43:45;;;;;;;13.33;11.80;;;;;;;6.94;67.51;98813.98;2217731;80;21268;-78
2021/04/03 11:46:46;;;;;;;11.57;10.37;;;;;;;6.94;67.51;98813.98;2218235;80;21141;-78
2021/04/03 11:49:47;;;;;;;9.70;8.70;;;;;;;7.23;65.19;98816.44;2218274;80;21178;-78
2021/04/03 11:52:48;;;;;;;9.07;7.20;;;;;;;7.47;63.84;98799.27;2218914;80;21150;-78
2021/04/03 11:55:49;;;;;;;11.40;7.67;;;;;;;7.61;62.09;98802.63;2218442;80;21471;-79
2021/04/03 11:58:50;;;;;;;10.50;9.23;;;;;;;7.84;61.77;98804.90;2218846;80;21142;-81
2021/04/03 12:01:51;;;;;;;10.20;8.07;;;;;;;7.99;62.17;98810.42;2219168;80;21147;-80
2021/04/03 12:04:52;;;;;;;9.33;8.17;;;;;;;8.00;59.27;98809.58;2218803;80;21133;-79
2021/04/03 12:07:55;;;;;;;9.13;8.23;;;;;;;7.90;58.53;98805.03;2218557;80;21142;-80
2021/04/03 12:10:56;;;;;;;11.70;8.37;;;;;;;7.83;58.55;98810.52;2219108;80;21153;-79
2021/04/03 12:13:57;;;;;;;11.30;8.93;;;;;;;7.54;59.85;98803.34;2218748;80;21165;-81
2021/04/03 12:16:58;;;;;;;9.57;8.63;;;;;;;7.38;60.08;98805.53;2218760;80;21166;-81
2021/04/03 12:19:59;;;;;;;10.97;9.37;;;;;;;7.24;60.37;98816.47;2215778;80;21143;-79
2021/04/03 12:23:01;;;;;;;10.33;8.87;;;;;;;7.01;60.99;98819.80;2211740;81;21126;-80
2021/04/03 12:26:02;;;;;;;12.10;9.87;;;;;;;6.67;62.28;98831.39;2211525;81;21110;-80
2021/04/03 12:29:03;;;;;;;9.00;7.87;;;;;;;6.27;63.93;98841.95;2211703;81;21424;-79
2021/04/03 12:32:04;;;;;;;10.73;8.43;;;;;;;5.87;64.02;98842.85;2211386;81;21415;-80
2021/04/03 12:35:05;;;;;;;9.20;7.43;;;;;;;5.39;67.66;98858.62;2211835;81;21248;-79
2021/04/03 12:38:06;;;;;;;10.47;8.57;;;;;;;5.06;68.03;98846.71;2211392;81;21146;-80
2021/04/03 12:41:07;;;;;;;14.53;11.00;;;;;;;5.27;67.54;98818.10;2211254;81;21137;-79
2021/04/03 12:44:08;;;;;;;14.17;9.87;;;;;;;5.66;68.40;98814.17;2211029;80;21384;-80
2021/04/03 12:47:09;;;;;;;15.10;10.60;;;;;;;6.01;69.01;98812.66;2210643;81;21561;-79
2021/04/03 12:50:10;;;;;;;19.93;14.73;;;;;;;6.27;67.60;98804.80;2210286;80;21277;-80
2021/04/03 12:53:11;;;;;;;15.83;10.80;;;;;;;6.85;66.63;98799.45;2211082;80;21137;-80
2021/04/03 12:56:12;;;;;;;8.00;6.87;;;;;;;6.85;66.63;98799.45;2211310;80;21165;-79
2021/04/03 12:59:13;;;;;;;6.90;5.93;;;;;;;6.98;64.65;98796.36;2211023;81;21142;-80
2021/04/03 13:02:16;;;;;;;10.10;6.30;;;;;;;7.07;63.79;98796.13;2211554;81;21122;-80
2021/04/03 13:05:17;;;;;;;8.47;6.93;;;;;;;7.00;63.21;98800.30;2211006;81;21106;-79
2021/04/03 13:08:18;;;;;;;8.40;6.80;;;;;;;6.96;64.32;98792.84;2210174;81;21433;-79
2021/04/03 13:11:20;;;;;;;7.13;5.77;;;;;;;7.16;63.37;98789.87;2211027;81;21102;-79
2021/04/03 13:14:21;;;;;;;7.93;6.63;;;;;;;7.21;62.18;98797.34;2210535;81;21276;-79
2021/04/03 13:17:22;;;;;;;10.73;6.57;;;;;;;7.15;62.49;98790.70;2211120;81;21118;-78
2021/04/03 13:20:23;;;;;;;7.03;6.33;;;;;;;7.15;60.84;98783.80;2211213;81;21146;-79
2021/04/03 13:23:24;;;;;;;7.93;6.20;;;;;;;7.17;61.54;98779.94;2210819;81;21277;-79
2021/04/03 13:26:25;;;;;;;8.17;6.13;;;;;;;7.31;62.69;98787.64;2211161;81;21138;-79
2021/04/03 13:29:26;;;;;;;9.40;6.60;;;;;;;7.47;61.75;98780.66;2211072;81;21150;-80
2021/04/03 13:32:29;;;;;;;4.57;4.13;;;;;;;7.66;61.19;98778.05;2211419;81;21145;-79
2021/04/03 13:35:30;;;;;;;4.67;3.50;;;;;;;7.77;54.26;98788.69;2211712;81;21153;-80
2021/04/03 13:38:31;;;;;;;5.13;3.83;;;;;;;7.77;54.26;98788.69;2211571;81;21139;-80
2021/04/03 13:41:32;;;;;;;5.00;4.13;;;;;;;7.82;55.97;98772.80;2211885;81;21135;-80
2021/04/03 13:44:33;;;;;;;5.70;4.13;;;;;;;8.05;54.10;98778.06;2211072;81;21153;-79
2021/04/03 13:47:34;;;;;;;7.93;3.60;;;;;;;8.19;55.86;98770.55;2211109;81;21426;-80
2021/04/03 13:50:35;;;;;;;4.30;3.87;;;;;;;8.19;53.65;98777.92;2211013;81;21169;-79
2021/04/03 13:53:37;;;;;;;29.97;10.17;;;;;;;8.06;52.15;98781.12;2211524;81;21165;-79
2021/04/03 13:56:38;;;;;;;8.57;5.30;;;;;;;7.96;53.54;98777.88;2212057;80;21142;-80
2021/04/03 13:59:39;;;;;;;8.00;6.30;;;;;;;8.07;52.78;98794.99;2212048;81;21130;-80
2021/04/03 14:02:40;;;;;;;7.57;4.53;;;;;;;7.93;50.35;98793.41;2212241;81;21252;-80
2021/04/03 14:05:41;;;;;;;9.03;6.50;;;;;;;7.78;46.79;98791.73;2212153;81;21129;-80
2021/04/03 14:08:42;;;;;;;4.53;3.77;;;;;;;7.61;49.11;98805.23;2211720;80;21115;-80